Terminal Aerodrome Forecast
Issued by NWS

Home | Current Version | Previous Version | Graphics & Text | Print | Product List | Glossary On
Versions: 1 2 3 4 5 6 7 8 9 10 11 12 13 14 15 16
891
FTUS43 KBIS 250524
TAFDIK
TAF
KDIK 250524Z 2506/2606 20004KT P6SM SCT070
     FM251300 26008KT P6SM SCT080 BKN140
     FM251500 29011KT P6SM BKN080 BKN120
     FM252000 33013KT P6SM FEW070 SCT100
     FM252300 36012KT P6SM FEW070
     FM260200 04008KT P6SM SKC=

USA.gov is the U.S. government's official web portal to all federal, state and local government web resources and services.